LDRI/RJK METAR and TAF weather

Enter ICAO airport designator
Station Type Date Time Source
LDRI METAR 2019/10/15 03:30 UTC NOAA

LDRI 150330Z VRB02KT CAVOK 14/13 Q1018


Station Type Date Time Source
LDRI Decoded METAR 2019/10/15 03:30 UTC NOAA

Rijeka / Omisalj, Croatia (LDRI) 45-13N 014-35E
Oct 14, 2019 - 11:30 PM EDT / 2019.10.15 0330 UTC
Wind: Variable at 2 MPH (2 KT):0
Visibility: greater than 7 mile(s):0
Temperature: 57 F (14 C)
Dew Point: 55 F (13 C)
Relative Humidity: 93%
Pressure (altimeter): 30.06 in. Hg (1018 hPa)
ob: LDRI 150330Z VRB02KT CAVOK 14/13 Q1018
cycle: 3

Station Type Date Time Source
LDRI TAF 2019/10/14 18:27 UTC NOAA

TAF LDRI 141725Z 1418/1518 VRB02KT 9999 SCT015 TX21/1513Z TN14/1503Z PROB30
TEMPO 1500/1507 3000 BR BKN007
BECMG 1507/1509 16008KT

Example: see airport list